Time;durP1;ratioP1;P1;durP2;ratioP2;P2;SDS_P1;SDS_P2;PMS_P1;PMS_P2;Temp;Humidity;BMP_temperature;BMP_pressure;BME280_temperature;BME280_humidity;BME280_pressure;Samples;Min_cycle;Max_cycle;Signal;HPM_P1;HPM_P2
2023/03/09 00:01:29;;;;;;;;;;;;;;;14.71;35.98;101937.94;4771363;30;19925;-51
2023/03/09 00:03:55;;;;;;;;;;;;;;;14.10;35.57;101931.78;4771284;30;19940;-49
2023/03/09 00:06:22;;;;;;;;;;;;;;;14.12;38.16;101938.63;4771250;30;19918;-51
2023/03/09 00:08:48;;;;;;;;;;;;;;;14.29;35.65;101928.31;4771365;30;20285;-48
2023/03/09 00:11:14;;;;;;;;;;;;;;;14.22;37.76;101924.78;4771363;30;20002;-50
2023/03/09 00:13:40;;;;;;;;;;;;;;;14.19;37.01;101917.91;4770908;30;19925;-51
2023/03/09 00:16:10;;;;;;;;;;;;;;;14.23;36.41;101913.81;4771075;30;19918;-51
2023/03/09 00:18:36;;;;;;;;;;;;;;;14.07;36.24;101910.66;4771180;30;20016;-50
2023/03/09 00:21:02;;;;;;;;;;;;;;;13.90;36.43;101913.72;4771295;30;20000;-52
2023/03/09 00:23:28;;;;;;;;;;;;;;;13.70;35.64;101919.00;4771242;30;19918;-51
2023/03/09 00:25:54;;;;;;;;;;;;;;;13.63;34.63;101912.75;4770947;30;19921;-46
2023/03/09 00:28:20;;;;;;;;;;;;;;;13.64;34.76;101905.53;4768259;30;19917;-46
2023/03/09 00:30:46;;;;;;;;;;;;;;;13.61;35.46;101901.38;4770818;30;20389;-47
2023/03/09 00:33:12;;;;;;;;;;;;;;;13.53;34.63;101901.53;4770706;30;20373;-52
2023/03/09 00:35:38;;;;;;;;;;;;;;;13.43;35.25;101901.88;4768983;30;20393;-50
2023/03/09 00:38:04;;;;;;;;;;;;;;;13.63;33.71;101906.56;4770441;30;19926;-50
2023/03/09 00:40:29;;;;;;;;;;;;;;;13.60;33.89;101885.41;4770802;30;19925;-50
2023/03/09 00:42:55;;;;;;;;;;;;;;;13.57;34.23;101883.16;4770190;30;20012;-51
2023/03/09 00:45:23;;;;;;;;;;;;;;;13.62;33.99;101880.69;4769454;30;19997;-51
2023/03/09 00:47:49;;;;;;;;;;;;;;;13.00;32.97;101876.19;4770608;30;19922;-51
2023/03/09 00:50:15;;;;;;;;;;;;;;;13.26;35.31;101873.66;4770562;30;20030;-50
2023/03/09 00:52:41;;;;;;;;;;;;;;;13.29;34.38;101872.47;4770652;30;20374;-50
2023/03/09 00:55:07;;;;;;;;;;;;;;;13.26;34.75;101862.91;4759754;30;19930;-51
2023/03/09 00:57:34;;;;;;;;;;;;;;;13.11;34.82;101854.97;4754030;30;19929;-50
2023/03/09 01:00:00;;;;;;;;;;;;;;;12.98;34.54;101862.09;4765468;30;19926;-48
2023/03/09 01:02:26;;;;;;;;;;;;;;;12.72;33.27;101850.16;4763397;30;19944;-49
2023/03/09 01:04:52;;;;;;;;;;;;;;;12.11;32.24;101853.34;4768532;30;19962;-48
2023/03/09 01:07:18;;;;;;;;;;;;;;;12.59;33.75;101858.91;4767960;30;20369;-49
2023/03/09 01:09:44;;;;;;;;;;;;;;;12.56;32.79;101863.88;4752834;30;20220;-51
2023/03/09 01:12:10;;;;;;;;;;;;;;;12.55;32.48;101864.91;4752216;30;19919;-52
2023/03/09 01:14:36;;;;;;;;;;;;;;;12.64;34.28;101852.97;4751975;30;19926;-48
2023/03/09 01:17:02;;;;;;;;;;;;;;;12.70;35.09;101857.56;4752088;30;20377;-49
2023/03/09 01:19:28;;;;;;;;;;;;;;;12.55;35.94;101846.94;4752346;30;19921;-51
2023/03/09 01:21:54;;;;;;;;;;;;;;;12.51;35.55;101853.72;4759691;30;19927;-52
2023/03/09 01:24:20;;;;;;;;;;;;;;;12.43;35.51;101860.03;4769914;30;20013;-47
2023/03/09 01:26:46;;;;;;;;;;;;;;;12.39;37.42;101860.63;4765441;30;19919;-48
2023/03/09 01:29:11;;;;;;;;;;;;;;;12.42;42.83;101869.09;4752128;30;20453;-50
2023/03/09 01:31:37;;;;;;;;;;;;;;;11.81;46.22;101860.66;4752239;30;20062;-51
2023/03/09 01:34:03;;;;;;;;;;;;;;;11.86;46.51;101860.91;4751880;30;19918;-48
2023/03/09 01:36:29;;;;;;;;;;;;;;;11.66;47.07;101869.72;4751597;30;19925;-47
2023/03/09 01:38:55;;;;;;;;;;;;;;;12.10;45.35;101875.00;4759518;30;19918;-47
2023/03/09 01:41:22;;;;;;;;;;;;;;;12.06;45.73;101881.78;4769832;30;20381;-51
2023/03/09 01:43:49;;;;;;;;;;;;;;;12.11;44.83;101890.91;4765016;30;19937;-48
2023/03/09 01:46:15;;;;;;;;;;;;;;;12.02;45.23;101892.06;4755295;30;19922;-50
2023/03/09 01:48:41;;;;;;;;;;;;;;;12.03;45.69;101895.56;4762808;30;19944;-50
2023/03/09 01:51:07;;;;;;;;;;;;;;;11.71;44.87;101878.84;4760798;30;20329;-49
2023/03/09 01:53:33;;;;;;;;;;;;;;;11.27;46.51;101884.25;4768428;30;20546;-46
2023/03/09 01:55:59;;;;;;;;;;;;;;;11.43;47.16;101875.19;4768504;30;20350;-46
2023/03/09 01:58:27;;;;;;;;;;;;;;;11.28;48.45;101878.75;4769865;30;20335;-48
2023/03/09 02:00:54;;;;;;;;;;;;;;;11.37;48.13;101876.78;4769723;30;20388;-45
2023/03/09 02:03:38;;;;;;;;;;;;;;;11.36;47.65;101886.66;4744587;30;20340;-50
2023/03/09 02:06:09;;;;;;;;;;;;;;;11.34;48.21;101883.34;4767644;30;20381;-49
2023/03/09 02:08:37;;;;;;;;;;;;;;;11.33;48.04;101891.59;4767177;30;19932;-49
2023/03/09 02:11:06;;;;;;;;;;;;;;;11.26;48.02;101886.13;4769238;30;19922;-52
2023/03/09 02:13:34;;;;;;;;;;;;;;;11.25;47.25;101897.84;4768999;30;19917;-48
2023/03/09 02:16:00;;;;;;;;;;;;;;;11.04;47.48;101903.94;4772719;30;19933;-52
2023/03/09 02:18:27;;;;;;;;;;;;;;;10.93;48.21;101906.22;4786866;30;19923;-50
2023/03/09 02:21:03;;;;;;;;;;;;;;;11.03;47.53;101904.94;4774267;30;20297;-49
2023/03/09 02:23:36;;;;;;;;;;;;;;;10.87;47.38;101893.56;4769124;30;19918;-52
2023/03/09 02:26:25;;;;;;;;;;;;;;;10.64;48.41;101904.31;4768523;30;19924;-47
2023/03/09 02:28:51;;;;;;;;;;;;;;;10.59;48.61;101910.22;4751584;30;19917;-50
2023/03/09 02:31:24;;;;;;;;;;;;;;;10.43;48.78;101919.19;4768973;30;19994;-50
2023/03/09 02:33:49;;;;;;;;;;;;;;;10.45;49.37;101927.91;4765645;30;19922;-51
2023/03/09 02:36:15;;;;;;;;;;;;;;;10.41;49.32;101937.28;4750840;30;19918;-52
2023/03/09 02:38:41;;;;;;;;;;;;;;;10.35;49.86;101939.84;4751249;30;19966;-52
2023/03/09 02:41:09;;;;;;;;;;;;;;;10.39;50.42;101942.00;4751223;30;19926;-49
2023/03/09 02:43:43;;;;;;;;;;;;;;;10.29;50.57;101947.56;4760522;30;20377;-50
2023/03/09 02:46:09;;;;;;;;;;;;;;;10.14;51.33;101949.28;4752633;30;19925;-49
2023/03/09 02:48:35;;;;;;;;;;;;;;;10.19;51.88;101954.97;4768674;30;20094;-51
2023/03/09 02:51:01;;;;;;;;;;;;;;;10.17;51.56;101959.66;4768971;30;20284;-52
2023/03/09 02:53:27;;;;;;;;;;;;;;;10.18;51.93;101958.66;4769089;30;19948;-49
2023/03/09 02:55:53;;;;;;;;;;;;;;;10.01;52.63;101959.75;4768587;30;19918;-50
2023/03/09 02:58:19;;;;;;;;;;;;;;;9.89;53.12;101961.97;4768544;30;19917;-52
2023/03/09 03:00:45;;;;;;;;;;;;;;;9.93;53.36;101949.91;4768449;30;19983;-47
2023/03/09 03:03:10;;;;;;;;;;;;;;;9.91;53.24;101949.25;4765912;30;19918;-49
2023/03/09 03:05:36;;;;;;;;;;;;;;;9.92;53.13;101952.75;4768716;30;19922;-50
2023/03/09 03:08:02;;;;;;;;;;;;;;;9.96;52.94;101952.25;4771021;30;19925;-50
2023/03/09 03:10:28;;;;;;;;;;;;;;;9.94;52.52;101951.59;4771969;30;19918;-51
2023/03/09 03:12:54;;;;;;;;;;;;;;;10.02;52.42;101951.53;4772216;30;20063;-51
2023/03/09 03:15:20;;;;;;;;;;;;;;;9.83;52.80;101951.97;4771956;30;20074;-50
2023/03/09 03:17:45;;;;;;;;;;;;;;;9.86;52.59;101959.63;4771654;30;19918;-51
2023/03/09 03:20:12;;;;;;;;;;;;;;;9.70;53.28;101962.38;4780729;30;19933;-51
2023/03/09 03:22:38;;;;;;;;;;;;;;;9.68;53.62;101959.06;4772395;30;20438;-52
2023/03/09 03:25:04;;;;;;;;;;;;;;;9.84;53.93;101959.00;4769729;30;20068;-51
2023/03/09 03:27:32;;;;;;;;;;;;;;;9.85;53.99;101966.00;4771426;30;19925;-48
2023/03/09 03:29:58;;;;;;;;;;;;;;;9.67;54.29;101966.25;4771384;30;20051;-51
2023/03/09 03:32:24;;;;;;;;;;;;;;;9.68;54.33;101961.72;4771972;30;20008;-51
2023/03/09 03:34:50;;;;;;;;;;;;;;;9.67;54.42;101958.22;4757371;30;20020;-48
2023/03/09 03:37:16;;;;;;;;;;;;;;;9.70;54.64;101946.34;4756168;30;19918;-51
2023/03/09 03:39:42;;;;;;;;;;;;;;;9.63;54.62;101951.53;4768213;30;19918;-51
2023/03/09 03:42:08;;;;;;;;;;;;;;;9.63;54.94;101953.38;4754011;30;19924;-51
2023/03/09 03:44:34;;;;;;;;;;;;;;;9.73;54.74;101946.84;4771397;30;19925;-51
2023/03/09 03:47:00;;;;;;;;;;;;;;;9.68;55.27;101946.50;4771051;30;19921;-50
2023/03/09 03:49:26;;;;;;;;;;;;;;;9.60;55.70;101948.38;4771595;30;19926;-52
2023/03/09 03:51:52;;;;;;;;;;;;;;;9.58;55.83;101951.22;4767824;30;20275;-51
2023/03/09 03:54:17;;;;;;;;;;;;;;;9.48;56.09;101954.09;4756822;30;19979;-48
2023/03/09 03:56:43;;;;;;;;;;;;;;;9.41;56.00;101954.94;4771145;30;19992;-48
2023/03/09 03:59:10;;;;;;;;;;;;;;;9.54;56.10;101952.56;4771422;30;19921;-52
2023/03/09 04:01:36;;;;;;;;;;;;;;;9.44;56.02;101951.94;4771448;30;19922;-47
2023/03/09 04:04:02;;;;;;;;;;;;;;;9.32;56.04;101953.28;4771403;30;19987;-48
2023/03/09 04:06:28;;;;;;;;;;;;;;;9.39;55.84;101955.13;4770920;30;19918;-48
2023/03/09 04:08:54;;;;;;;;;;;;;;;9.29;56.23;101961.66;4768339;30;19926;-48
2023/03/09 04:11:20;;;;;;;;;;;;;;;9.25;56.69;101956.66;4756013;30;19933;-51
2023/03/09 04:13:49;;;;;;;;;;;;;;;9.41;56.45;101955.78;4771321;30;19917;-52
2023/03/09 04:16:15;;;;;;;;;;;;;;;9.49;56.32;101971.81;4763995;30;20400;-50
2023/03/09 04:18:41;;;;;;;;;;;;;;;9.39;56.56;101971.16;4770620;30;20401;-52
2023/03/09 04:21:07;;;;;;;;;;;;;;;9.35;56.41;101967.16;4770909;30;19918;-47
2023/03/09 04:23:33;;;;;;;;;;;;;;;9.33;56.69;101961.16;4771018;30;19987;-51
2023/03/09 04:26:00;;;;;;;;;;;;;;;9.45;56.76;101959.78;4770678;30;19921;-52
2023/03/09 04:28:26;;;;;;;;;;;;;;;9.45;57.19;101966.97;4765089;30;19918;-52
2023/03/09 04:30:53;;;;;;;;;;;;;;;9.41;57.44;101971.00;4770911;30;19917;-51
2023/03/09 04:33:20;;;;;;;;;;;;;;;9.29;57.80;101969.69;4770993;30;19917;-51
2023/03/09 04:35:45;;;;;;;;;;;;;;;9.22;57.97;101970.38;4770639;30;20016;-49
2023/03/09 04:38:11;;;;;;;;;;;;;;;9.30;57.79;101979.34;4770680;30;20082;-51
2023/03/09 04:40:37;;;;;;;;;;;;;;;9.31;57.86;101979.19;4770733;30;19983;-52
2023/03/09 04:43:03;;;;;;;;;;;;;;;9.27;57.96;101985.84;4770539;30;19918;-52
2023/03/09 04:45:29;;;;;;;;;;;;;;;9.27;58.13;101996.53;4770335;30;19917;-50
2023/03/09 04:47:56;;;;;;;;;;;;;;;9.16;58.23;101996.91;4770734;30;19917;-50
2023/03/09 04:50:22;;;;;;;;;;;;;;;9.17;58.62;101994.06;4770415;30;19929;-51
2023/03/09 04:52:49;;;;;;;;;;;;;;;9.10;58.76;101995.72;4770936;30;20309;-51
2023/03/09 04:55:16;;;;;;;;;;;;;;;9.05;59.08;101995.44;4770502;30;19918;-51
2023/03/09 04:57:42;;;;;;;;;;;;;;;9.03;58.92;101996.56;4770777;30;19918;-51
2023/03/09 05:00:10;;;;;;;;;;;;;;;9.10;59.13;101998.41;4770212;30;20005;-51
2023/03/09 05:02:40;;;;;;;;;;;;;;;9.24;58.57;102000.41;4765815;30;19925;-52
2023/03/09 05:05:06;;;;;;;;;;;;;;;9.26;58.54;102003.72;4769846;30;19922;-52
2023/03/09 05:07:32;;;;;;;;;;;;;;;9.14;58.93;102002.41;4770328;30;19918;-51
2023/03/09 05:09:58;;;;;;;;;;;;;;;9.29;58.68;102012.44;4770443;30;20015;-52
2023/03/09 05:12:30;;;;;;;;;;;;;;;9.23;58.59;102011.28;4769903;30;19992;-52
2023/03/09 05:14:57;;;;;;;;;;;;;;;9.26;58.41;102013.59;4770095;30;20392;-52
2023/03/09 05:17:23;;;;;;;;;;;;;;;9.11;58.63;102013.44;4769523;30;19922;-51
2023/03/09 05:19:49;;;;;;;;;;;;;;;9.21;58.81;102016.75;4770061;30;20274;-50
2023/03/09 05:22:16;;;;;;;;;;;;;;;9.25;58.27;102020.78;4770314;30;19918;-52
2023/03/09 05:24:42;;;;;;;;;;;;;;;9.38;58.03;102022.91;4754019;30;20709;-52
2023/03/09 05:27:08;;;;;;;;;;;;;;;9.15;58.54;102017.44;4769626;30;19950;-52
2023/03/09 05:29:34;;;;;;;;;;;;;;;9.17;58.79;102025.31;4769448;30;19918;-50
2023/03/09 05:32:00;;;;;;;;;;;;;;;9.09;58.95;102028.78;4770001;30;19918;-51
2023/03/09 05:34:26;;;;;;;;;;;;;;;9.19;58.66;102029.47;4770106;30;19975;-52
2023/03/09 05:36:52;;;;;;;;;;;;;;;9.06;58.99;102031.81;4769351;30;20326;-51
2023/03/09 05:39:18;;;;;;;;;;;;;;;9.03;58.95;102024.13;4769720;30;20385;-50
2023/03/09 05:41:44;;;;;;;;;;;;;;;9.09;59.21;102033.28;4769697;30;20298;-51
2023/03/09 05:44:09;;;;;;;;;;;;;;;9.02;59.30;102034.97;4768779;30;20350;-47
2023/03/09 05:46:35;;;;;;;;;;;;;;;8.90;60.02;102042.47;4767744;30;19922;-51
2023/03/09 05:49:01;;;;;;;;;;;;;;;8.94;60.00;102042.00;4768451;30;19922;-50
2023/03/09 05:51:27;;;;;;;;;;;;;;;8.87;60.09;102040.13;4767866;30;19972;-51
2023/03/09 05:53:53;;;;;;;;;;;;;;;8.80;60.23;102041.78;4768281;30;19918;-51
2023/03/09 05:56:19;;;;;;;;;;;;;;;8.85;60.04;102034.13;4769575;30;19968;-52
2023/03/09 05:58:48;;;;;;;;;;;;;;;8.71;60.50;102031.09;4767648;30;19926;-52
2023/03/09 06:01:21;;;;;;;;;;;;;;;8.66;60.57;102033.44;4768448;30;19922;-52
2023/03/09 06:03:48;;;;;;;;;;;;;;;8.61;60.50;102034.94;4768797;30;19922;-51
2023/03/09 06:06:15;;;;;;;;;;;;;;;8.59;60.41;102032.41;4787179;30;19926;-52
2023/03/09 06:08:41;;;;;;;;;;;;;;;8.50;60.81;102041.41;4772349;30;19917;-51
2023/03/09 06:11:07;;;;;;;;;;;;;;;8.48;61.00;102031.88;4769330;30;19945;-51
2023/03/09 06:13:33;;;;;;;;;;;;;;;8.00;63.50;102028.88;4767962;30;19940;-52
2023/03/09 06:16:01;;;;;;;;;;;;;;;8.01;62.93;102027.88;4767521;30;20449;-51
2023/03/09 06:18:27;;;;;;;;;;;;;;;8.13;62.42;102025.75;4767909;30;19918;-51
2023/03/09 06:20:53;;;;;;;;;;;;;;;8.15;62.16;102034.41;4769218;30;19926;-52
2023/03/09 06:23:19;;;;;;;;;;;;;;;7.37;65.89;102015.84;4767983;30;20335;-51
2023/03/09 06:25:45;;;;;;;;;;;;;;;6.83;68.01;102025.75;4767587;30;19930;-51
2023/03/09 06:28:11;;;;;;;;;;;;;;;7.22;66.68;102028.91;4768120;30;19975;-50
2023/03/09 06:30:42;;;;;;;;;;;;;;;6.68;68.61;102022.78;4769228;30;20326;-51
2023/03/09 06:33:08;;;;;;;;;;;;;;;6.81;68.42;102027.72;4767387;30;19917;-51
2023/03/09 06:35:35;;;;;;;;;;;;;;;6.29;70.34;102025.69;4767756;30;19925;-52
2023/03/09 06:38:01;;;;;;;;;;;;;;;6.29;70.98;102032.81;4752096;30;20369;-52
2023/03/09 06:40:28;;;;;;;;;;;;;;;6.73;68.78;102036.47;4768051;30;19926;-52
2023/03/09 06:42:54;;;;;;;;;;;;;;;6.81;68.41;102025.88;4770890;30;19917;-51
2023/03/09 06:45:22;;;;;;;;;;;;;;;6.88;67.97;102018.13;4771002;30;20278;-51
2023/03/09 06:47:48;;;;;;;;;;;;;;;7.09;67.31;102018.63;4770746;30;20267;-51
2023/03/09 06:50:14;;;;;;;;;;;;;;;6.56;69.53;102016.00;4772474;30;20416;-50
2023/03/09 06:52:40;;;;;;;;;;;;;;;6.24;71.04;102008.50;4771658;30;19929;-51
2023/03/09 06:55:06;;;;;;;;;;;;;;;6.16;71.81;102003.09;4772399;30;19967;-48
2023/03/09 06:57:32;;;;;;;;;;;;;;;6.49;69.98;102002.44;4770098;30;20012;-47
2023/03/09 06:59:58;;;;;;;;;;;;;;;6.25;71.03;101995.06;4772638;30;19929;-48
2023/03/09 07:02:24;;;;;;;;;;;;;;;6.24;71.54;101997.88;4770863;30;19921;-50
2023/03/09 07:04:50;;;;;;;;;;;;;;;6.00;71.77;101985.97;4761053;30;19921;-49
2023/03/09 07:07:18;;;;;;;;;;;;;;;4.99;76.44;101990.16;4766510;30;19922;-50
2023/03/09 07:09:44;;;;;;;;;;;;;;;4.69;78.30;101991.16;4775641;30;19917;-51
2023/03/09 07:12:10;;;;;;;;;;;;;;;4.55;79.58;101993.38;4776317;30;19926;-50
2023/03/09 07:14:36;;;;;;;;;;;;;;;4.34;80.76;101991.69;4771917;30;19940;-48
2023/03/09 07:17:01;;;;;;;;;;;;;;;4.37;81.00;101990.56;4770738;30;19929;-49
2023/03/09 07:19:27;;;;;;;;;;;;;;;4.38;81.35;101990.41;4770674;30;19918;-50
2023/03/09 07:21:53;;;;;;;;;;;;;;;4.47;80.94;101986.13;4771012;30;19940;-51
2023/03/09 07:24:19;;;;;;;;;;;;;;;4.68;80.27;101991.31;4772057;30;19922;-50
2023/03/09 07:26:46;;;;;;;;;;;;;;;4.74;79.85;101988.91;4770874;30;19932;-50
2023/03/09 07:29:12;;;;;;;;;;;;;;;4.92;78.44;101981.09;4771772;30;20339;-49
2023/03/09 07:31:39;;;;;;;;;;;;;;;4.40;80.70;101988.50;4770795;30;20389;-50
2023/03/09 07:34:05;;;;;;;;;;;;;;;4.27;82.01;101985.25;4772010;30;19975;-51
2023/03/09 07:36:31;;;;;;;;;;;;;;;4.15;82.68;101981.88;4770192;30;19922;-51
2023/03/09 07:38:57;;;;;;;;;;;;;;;4.16;82.60;101985.34;4771758;30;20016;-50
2023/03/09 07:41:23;;;;;;;;;;;;;;;4.23;83.04;101990.00;4769789;30;20347;-49
2023/03/09 07:43:48;;;;;;;;;;;;;;;4.57;81.90;101994.09;4771895;30;19925;-51
2023/03/09 07:46:15;;;;;;;;;;;;;;;4.82;79.63;101990.88;4770740;30;19922;-50
2023/03/09 07:48:41;;;;;;;;;;;;;;;4.69;80.65;101992.97;4770867;30;19969;-50
2023/03/09 07:51:08;;;;;;;;;;;;;;;4.81;80.04;101991.84;4770929;30;19982;-50
2023/03/09 07:53:34;;;;;;;;;;;;;;;4.71;79.85;101997.16;4770928;30;19917;-51
2023/03/09 07:56:03;;;;;;;;;;;;;;;4.60;80.81;101996.44;4770270;30;19928;-50
2023/03/09 07:58:30;;;;;;;;;;;;;;;4.42;81.75;101989.19;4770099;30;20282;-51
2023/03/09 08:00:56;;;;;;;;;;;;;;;4.50;81.21;101985.84;4771511;30;20024;-51
2023/03/09 08:03:22;;;;;;;;;;;;;;;4.37;82.24;101987.91;4769823;30;19929;-51
2023/03/09 08:05:49;;;;;;;;;;;;;;;4.69;81.23;101988.50;4753476;30;19922;-51
2023/03/09 08:08:15;;;;;;;;;;;;;;;4.64;80.90;101989.91;4758071;30;19926;-51
2023/03/09 08:10:51;;;;;;;;;;;;;;;4.60;81.72;101999.94;4770298;30;19932;-51
2023/03/09 08:13:17;;;;;;;;;;;;;;;4.82;80.41;101998.00;4769837;30;19922;-50
2023/03/09 08:15:43;;;;;;;;;;;;;;;4.97;80.33;101997.44;4770994;30;19925;-50
2023/03/09 08:18:08;;;;;;;;;;;;;;;5.07;80.30;102008.03;4770050;30;19936;-48
2023/03/09 08:20:36;;;;;;;;;;;;;;;5.49;78.71;102002.34;4771120;30;20308;-49
2023/03/09 08:23:02;;;;;;;;;;;;;;;5.07;79.94;101988.63;4770375;30;20378;-50
2023/03/09 08:25:29;;;;;;;;;;;;;;;4.98;80.24;101988.47;4771005;30;20357;-48
2023/03/09 08:27:55;;;;;;;;;;;;;;;5.42;79.42;101986.16;4769524;30;19922;-48
2023/03/09 08:30:21;;;;;;;;;;;;;;;5.54;77.82;101987.66;4770917;30;20025;-51
2023/03/09 08:32:48;;;;;;;;;;;;;;;5.52;77.88;101980.84;4767646;30;19921;-48
2023/03/09 08:35:18;;;;;;;;;;;;;;;5.56;77.50;101979.56;4769333;30;19972;-51
2023/03/09 08:37:43;;;;;;;;;;;;;;;5.59;77.77;101981.09;4762390;30;20009;-49
2023/03/09 08:40:10;;;;;;;;;;;;;;;5.55;77.30;101972.56;4767729;30;20009;-51
2023/03/09 08:42:36;;;;;;;;;;;;;;;5.47;77.74;101965.31;4770670;30;19975;-53
2023/03/09 08:45:03;;;;;;;;;;;;;;;5.68;77.19;101961.63;4769540;30;19930;-51
2023/03/09 08:47:30;;;;;;;;;;;;;;;5.75;76.88;101962.72;4770773;30;19918;-49
2023/03/09 08:49:56;;;;;;;;;;;;;;;5.78;76.12;101965.09;4766671;30;19934;-50
2023/03/09 08:52:22;;;;;;;;;;;;;;;5.88;75.71;101965.84;4770628;30;20045;-50
2023/03/09 08:54:49;;;;;;;;;;;;;;;5.73;75.29;101964.69;4768866;30;19925;-50
2023/03/09 08:57:15;;;;;;;;;;;;;;;4.81;79.32;101970.63;4769504;30;20172;-49
2023/03/09 08:59:40;;;;;;;;;;;;;;;4.73;80.23;101970.50;4769476;30;20083;-48
2023/03/09 09:02:06;;;;;;;;;;;;;;;5.27;77.93;101961.91;4769147;30;20383;-51
2023/03/09 09:04:33;;;;;;;;;;;;;;;5.20;78.03;101966.09;4753441;30;19924;-51
2023/03/09 09:06:59;;;;;;;;;;;;;;;4.83;78.77;101968.69;4768412;30;19972;-47
2023/03/09 09:09:25;;;;;;;;;;;;;;;5.20;78.37;101970.56;4769358;30;20235;-50
2023/03/09 09:11:51;;;;;;;;;;;;;;;5.49;76.89;101970.47;4769202;30;20703;-50
2023/03/09 09:14:17;;;;;;;;;;;;;;;5.60;76.10;101964.16;4770418;30;19918;-47
2023/03/09 09:16:42;;;;;;;;;;;;;;;5.63;75.87;101966.53;4768597;30;19918;-50
2023/03/09 09:19:08;;;;;;;;;;;;;;;5.50;75.74;101970.38;4753331;30;19922;-48
2023/03/09 09:21:34;;;;;;;;;;;;;;;4.94;78.20;101971.19;4768515;30;19924;-49
2023/03/09 09:24:00;;;;;;;;;;;;;;;4.99;78.42;101973.41;4770163;30;20016;-50
2023/03/09 09:26:26;;;;;;;;;;;;;;;5.11;78.79;101977.59;4760384;30;20016;-51
2023/03/09 09:28:52;;;;;;;;;;;;;;;5.20;78.61;101978.53;4759000;30;19917;-50
2023/03/09 09:31:19;;;;;;;;;;;;;;;5.59;76.77;101975.78;4757459;30;19965;-51
2023/03/09 09:33:45;;;;;;;;;;;;;;;5.34;76.87;101964.81;4757456;30;19925;-50
2023/03/09 09:36:13;;;;;;;;;;;;;;;5.75;75.78;101966.19;4767181;30;20357;-49
2023/03/09 09:38:40;;;;;;;;;;;;;;;5.62;75.86;101962.22;4756234;30;19925;-51
2023/03/09 09:41:24;;;;;;;;;;;;;;;5.37;77.22;101963.69;4768918;30;19926;-52
2023/03/09 09:43:52;;;;;;;;;;;;;;;5.37;77.14;101953.06;4768879;30;19986;-49
2023/03/09 09:46:20;;;;;;;;;;;;;;;5.43;76.88;101948.00;4769323;30;19921;-51
2023/03/09 09:48:47;;;;;;;;;;;;;;;5.32;76.96;101944.69;4763764;30;20007;-51
2023/03/09 09:51:22;;;;;;;;;;;;;;;5.30;77.34;101942.19;4757507;30;19969;-51
2023/03/09 09:54:11;;;;;;;;;;;;;;;5.67;76.10;101933.41;4769782;30;20013;-51
2023/03/09 09:56:44;;;;;;;;;;;;;;;5.63;75.78;101935.50;4768255;30;19926;-48
2023/03/09 09:59:15;;;;;;;;;;;;;;;5.80;74.83;101933.88;4769973;30;20355;-50
2023/03/09 10:01:41;;;;;;;;;;;;;;;6.02;74.29;101933.50;4752517;30;20313;-51
2023/03/09 10:04:13;;;;;;;;;;;;;;;5.83;74.71;101926.47;4769535;30;19918;-49
2023/03/09 10:06:40;;;;;;;;;;;;;;;5.64;75.46;101918.56;4767085;30;19932;-51
2023/03/09 10:09:10;;;;;;;;;;;;;;;5.63;75.85;101910.75;4769482;30;19926;-50
2023/03/09 10:11:40;;;;;;;;;;;;;;;5.46;76.71;101909.72;4768209;30;20373;-51
2023/03/09 10:14:08;;;;;;;;;;;;;;;5.94;75.13;101917.47;4769709;30;19965;-51
2023/03/09 10:16:36;;;;;;;;;;;;;;;5.98;74.69;101904.72;4768519;30;19928;-49
2023/03/09 10:19:04;;;;;;;;;;;;;;;5.56;75.84;101911.34;4769238;30;19917;-51
2023/03/09 10:21:30;;;;;;;;;;;;;;;5.37;76.42;101903.44;4769261;30;19918;-50
2023/03/09 10:23:56;;;;;;;;;;;;;;;5.66;75.47;101899.81;4769583;30;19924;-50
2023/03/09 10:26:28;;;;;;;;;;;;;;;5.71;75.39;101894.91;4767114;30;20382;-49
2023/03/09 10:28:57;;;;;;;;;;;;;;;5.71;75.47;101895.75;4769131;30;19922;-51
2023/03/09 10:31:31;;;;;;;;;;;;;;;5.82;74.76;101895.53;4769039;30;19931;-49
2023/03/09 10:34:26;;;;;;;;;;;;;;;5.75;75.06;101893.63;4769197;30;19956;-50
2023/03/09 10:36:58;;;;;;;;;;;;;;;5.81;74.74;101891.22;4768021;30;19918;-49
2023/03/09 10:39:24;;;;;;;;;;;;;;;5.88;74.57;101890.59;4769093;30;20000;-51
2023/03/09 10:41:51;;;;;;;;;;;;;;;5.87;74.50;101879.16;4769272;30;20380;-51
2023/03/09 10:44:19;;;;;;;;;;;;;;;5.83;74.46;101878.63;4768948;30;19917;-51
2023/03/09 10:46:58;;;;;;;;;;;;;;;5.35;76.45;101878.88;4769317;30;20004;-51
2023/03/09 10:49:24;;;;;;;;;;;;;;;5.06;78.51;101870.19;4768809;30;19929;-51
2023/03/09 10:52:00;;;;;;;;;;;;;;;4.90;78.96;101873.44;4769218;30;19922;-51
2023/03/09 10:54:27;;;;;;;;;;;;;;;4.86;79.30;101867.59;4768890;30;20288;-49
2023/03/09 10:56:53;;;;;;;;;;;;;;;4.78;79.96;101854.22;4768843;30;19918;-52
2023/03/09 10:59:21;;;;;;;;;;;;;;;4.84;80.01;101861.59;4768565;30;20451;-50
2023/03/09 11:01:48;;;;;;;;;;;;;;;5.27;78.47;101852.22;4769068;30;19921;-50
2023/03/09 11:04:23;;;;;;;;;;;;;;;5.54;76.83;101859.34;4768639;30;19917;-51
2023/03/09 11:06:58;;;;;;;;;;;;;;;5.79;75.57;101863.13;4768892;30;19914;-48
2023/03/09 11:09:30;;;;;;;;;;;;;;;5.48;76.51;101849.31;4767356;30;20005;-50
2023/03/09 11:12:16;;;;;;;;;;;;;;;5.56;76.46;101846.78;4761302;30;19933;-51
2023/03/09 11:14:49;;;;;;;;;;;;;;;5.63;75.92;101841.69;4758475;30;19973;-50
2023/03/09 11:17:35;;;;;;;;;;;;;;;5.67;75.57;101845.75;4762869;30;20428;-51
2023/03/09 11:20:13;;;;;;;;;;;;;;;5.79;74.89;101852.50;4752880;30;20317;-51
2023/03/09 11:22:42;;;;;;;;;;;;;;;5.71;75.03;101841.78;4768843;30;19965;-50
2023/03/09 11:25:21;;;;;;;;;;;;;;;5.79;74.91;101837.41;4768533;30;20001;-51
2023/03/09 11:27:56;;;;;;;;;;;;;;;5.83;74.78;101837.94;4769068;30;19976;-50
2023/03/09 11:30:25;;;;;;;;;;;;;;;5.78;74.60;101821.63;4763705;30;19972;-48
2023/03/09 11:32:52;;;;;;;;;;;;;;;5.89;74.32;101812.59;4771843;30;20289;-50
2023/03/09 11:35:18;;;;;;;;;;;;;;;5.94;74.18;101818.28;4772035;30;19924;-50
2023/03/09 11:37:51;;;;;;;;;;;;;;;5.76;75.11;101820.91;4771913;30;19925;-51
2023/03/09 11:40:19;;;;;;;;;;;;;;;5.97;73.95;101818.00;4771982;30;20385;-49
2023/03/09 11:42:48;;;;;;;;;;;;;;;5.82;74.47;101831.78;4771689;30;19987;-48
2023/03/09 11:45:17;;;;;;;;;;;;;;;5.81;74.27;101823.97;4771576;30;19925;-49
2023/03/09 11:47:47;;;;;;;;;;;;;;;6.04;73.39;101821.72;4771661;30;19919;-49
2023/03/09 11:50:45;;;;;;;;;;;;;;;6.03;73.34;101822.72;4771442;30;19926;-51
2023/03/09 11:53:24;;;;;;;;;;;;;;;5.87;73.73;101822.53;4751079;30;20301;-48
2023/03/09 11:55:53;;;;;;;;;;;;;;;6.05;73.07;101824.25;4771435;30;19948;-51
2023/03/09 11:58:20;;;;;;;;;;;;;;;5.70;74.20;101818.88;4771378;30;19922;-50
2023/03/09 12:00:49;;;;;;;;;;;;;;;5.62;74.58;101824.94;4771843;30;19930;-51
2023/03/09 12:03:16;;;;;;;;;;;;;;;4.89;77.45;101818.72;4771376;30;19974;-50
2023/03/09 12:05:51;;;;;;;;;;;;;;;4.85;78.57;101804.06;4771248;30;20254;-49
2023/03/09 12:08:26;;;;;;;;;;;;;;;4.37;80.30;101807.66;4771290;30;19914;-50
2023/03/09 12:11:14;;;;;;;;;;;;;;;4.40;81.05;101804.75;4771495;30;19974;-47
2023/03/09 12:13:43;;;;;;;;;;;;;;;4.12;81.65;101803.81;4771407;30;19913;-49
2023/03/09 12:16:20;;;;;;;;;;;;;;;4.32;81.51;101805.44;4771072;30;20352;-49
2023/03/09 12:18:56;;;;;;;;;;;;;;;4.95;78.84;101811.03;4771561;30;20301;-48
2023/03/09 12:21:28;;;;;;;;;;;;;;;4.90;78.15;101810.63;4771298;30;19925;-50
2023/03/09 12:23:54;;;;;;;;;;;;;;;4.91;77.88;101804.31;4771246;30;19937;-50
2023/03/09 12:26:40;;;;;;;;;;;;;;;4.56;79.56;101812.13;4770859;30;19918;-50
2023/03/09 12:29:12;;;;;;;;;;;;;;;4.91;78.12;101801.66;4770732;30;19925;-48
2023/03/09 12:31:38;;;;;;;;;;;;;;;5.00;77.73;101790.19;4771096;30;19918;-51
2023/03/09 12:34:10;;;;;;;;;;;;;;;5.26;77.07;101795.63;4770735;30;20023;-51
2023/03/09 12:36:38;;;;;;;;;;;;;;;5.33;76.60;101790.59;4770923;30;20002;-50
2023/03/09 12:39:22;;;;;;;;;;;;;;;5.30;77.57;101780.25;4770698;30;20293;-50
2023/03/09 12:42:01;;;;;;;;;;;;;;;5.52;77.23;101779.84;4770882;30;20347;-51
2023/03/09 12:44:45;;;;;;;;;;;;;;;5.94;75.40;101768.66;4770959;30;20456;-51
2023/03/09 12:47:20;;;;;;;;;;;;;;;5.60;76.70;101768.47;4770797;30;19920;-51
2023/03/09 12:49:47;;;;;;;;;;;;;;;5.54;77.27;101761.09;4770531;30;19925;-51